Santander, Cantabria

latitud = 43° 29' 28''N | longitud = 003° 48' 02''W
52 metros sobre el nivel del mar | datos mensuales

Fecha, hora, temperatura, viento dirección y velocidad, humedad y presión.

  • 23-04-2018 10:00:00 | 13.20°C | Norte |14.00 km/h | 98.00% | 1015.10 hPa
  • 23-04-2018 09:00:00 | 13.30°C | Norte |13.00 km/h | 97.00% | 1014.50 hPa
  • 23-04-2018 08:00:00 | 13.50°C | Norte |4.00 km/h | 97.00% | 1014.10 hPa
  • 23-04-2018 07:00:00 | 13.50°C | Norte |8.00 km/h | 96.00% | 1013.50 hPa
  • 23-04-2018 06:00:00 | 13.60°C | Norte |4.00 km/h | 96.00% | 1012.90 hPa
  • 23-04-2018 05:00:00 | 13.40°C | Nordeste |7.00 km/h | 97.00% | 1012.70 hPa
  • 23-04-2018 04:00:00 | 13.40°C | Nordeste |6.00 km/h | 97.00% | 1012.30 hPa
  • 23-04-2018 03:00:00 | 13.40°C | Noroeste |4.00 km/h | 97.00% | 1012.80 hPa
  • 23-04-2018 02:00:00 | 13.50°C | Noroeste |9.00 km/h | 97.00% | 1013.30 hPa
  • 23-04-2018 01:00:00 | 13.40°C | Noroeste |13.00 km/h | 97.00% | 1013.10 hPa
  • 23-04-2018 00:00:00 | 13.50°C | Noroeste |11.00 km/h | 97.00% | 1013.10 hPa
  • 22-04-2018 23:00:00 | 13.70°C | Noroeste |12.00 km/h | 96.00% | 1012.80 hPa
  • 22-04-2018 22:00:00 | 13.80°C | Norte |11.00 km/h | 95.00% | 1011.80 hPa
  • 22-04-2018 21:00:00 | 14.00°C | Calma |0.00 km/h | 94.00% | 1012.10 hPa
  • 22-04-2018 20:00:00 | 14.20°C | Noroeste |9.00 km/h | 93.00% | 1010.80 hPa
  • 22-04-2018 19:00:00 | 14.60°C | Norte |16.00 km/h | 91.00% | 1010.00 hPa
  • 22-04-2018 18:00:00 | 16.00°C | Norte |17.00 km/h | 84.00% | 1008.90 hPa
  • 22-04-2018 17:00:00 | 16.80°C | Norte |11.00 km/h | 79.00% | 1008.90 hPa
  • 22-04-2018 16:00:00 | 16.90°C | Norte |5.00 km/h | 84.00% | 1009.10 hPa
  • 22-04-2018 15:00:00 | 17.70°C | Norte |3.00 km/h | 75.00% | 1009.30 hPa
  • 22-04-2018 14:00:00 | 17.70°C | Noroeste |8.00 km/h | 77.00% | 1009.30 hPa
  • 22-04-2018 13:00:00 | 19.00°C | Noroeste |5.00 km/h | 68.00% | 1010.40 hPa
  • 22-04-2018 12:00:00 | 18.20°C | Oeste |15.00 km/h | 71.00% | 1010.80 hPa
  • 22-04-2018 11:00:00 | 18.30°C | Oeste |18.00 km/h | 70.00% | 1010.40 hPa